Date,TemperatureHighF,TemperatureAvgF,TemperatureLowF,DewpointHighF,DewpointAvgF,DewpointLowF,HumidityHigh,HumidityAvg,HumidityLow,PressureMaxIn,PressureMinIn,WindSpeedMaxMPH,WindSpeedAvgMPH,GustSpeedMaxMPH,PrecipitationSumIn
2014-1-1,60,51,44,56,49,42,96,93,85,30.36,30.04,10,1,10,0.19
2014-1-2,59,51,35,57,47,28,98,86,65,30.30,29.93,25,5,27,0.19
2014-1-3,43,33,26,28,21,17,82,61,35,30.45,30.30,24,5,24,0.00
2014-1-4,57,44,31,44,34,22,86,69,60,30.34,30.10,16,4,16,0.00
2014-1-5,63,55,44,62,51,39,97,89,82,30.11,29.90,19,2,20,0.16
2014-1-6,51,33,23,48,18,2,93,57,32,30.58,29.98,31,9,31,0.00
2014-1-7,31,23,17,13,5,1,78,47,30,30.68,30.53,18,4,18,0.00
2014-1-8,48,30,17,23,14,7,85,55,20,30.57,30.39,15,2,15,0.00
2014-1-9,58,45,30,51,37,20,94,74,56,30.42,30.25,14,2,14,0.00
2014-1-10,66,57,50,65,56,48,99,97,93,30.25,29.97,10,2,11,0.06
2014-1-11,75,64,42,67,56,34,99,79,38,30.11,29.83,23,4,23,1.17
2014-1-12,63,48,35,48,40,33,97,77,41,30.26,30.11,12,1,13,0.00
2014-1-13,60,54,44,60,52,43,98,95,85,30.17,29.89,12,1,14,1.44
2014-1-14,64,54,41,60,44,31,98,73,29,30.11,29.88,19,3,19,0.00
2014-1-15,53,44,35,41,32,19,98,66,31,30.20,30.05,15,4,22,0.00
2014-1-16,51,38,23,35,25,12,92,63,30,30.26,30.12,13,2,14,0.00
2014-1-17,62,50,36,46,33,17,94,56,24,30.25,30.08,19,3,19,0.00
2014-1-18,52,39,23,40,25,11,94,64,23,30.35,30.13,13,1,14,0.00
2014-1-19,63,49,37,49,40,30,95,74,30,30.24,30.10,17,2,17,0.14
2014-1-20,65,48,32,51,41,31,98,81,50,30.17,29.99,11,1,11,0.00
2014-1-21,59,50,32,57,36,20,98,64,29,30.19,29.91,24,6,24,0.01
2014-1-22,50,35,26,30,20,7,90,57,23,30.27,30.16,13,3,13,0.00
2014-1-23,53,42,29,30,24,19,94,55,30,30.55,30.23,16,4,18,0.00
2014-1-24,41,35,32,24,13,4,68,41,25,30.62,30.33,19,5,20,0.00
2014-1-25,59,44,34,47,36,23,94,76,48,30.33,30.02,17,2,17,0.00
2014-1-26,58,46,33,52,42,32,97,85,53,30.10,29.95,12,1,12,0.00
2014-1-27,64,58,48,61,54,31,96,87,53,30.09,29.92,17,3,17,0.10
2014-1-28,48,33,24,31,22,11,93,68,37,30.30,30.07,21,5,22,0.05
2014-1-29,28,23,18,22,19,16,91,84,74,30.43,30.27,7,1,7,0.00
2014-1-30,45,29,15,35,25,12,95,83,61,30.36,30.19,10,1,10,0.01
2014-1-31,56,41,28,47,37,25,97,87,55,30.25,30.11,8,2,8,0.01
2014-2-1,68,55,46,60,52,42,98,88,74,30.14,30.08,14,2,14,0.00
2014-2-2,65,60,55,64,59,54,98,96,88,30.14,30.00,14,3,14,0.00
2014-2-3,66,57,49,66,54,46,99,92,83,30.14,29.98,18,5,18,0.25
2014-2-4,68,59,48,66,57,46,98,94,85,30.11,29.94,16,3,16,0.00
2014-2-5,68,54,38,68,48,32,99,81,60,30.29,29.94,22,7,22,0.02
2014-2-6,39,36,31,33,30,28,93,81,68,30.36,30.25,21,5,21,0.04
2014-2-7,58,43,30,42,35,28,94,76,51,30.36,30.21,14,3,14,0.02
2014-2-8,63,51,42,52,45,40,96,82,62,30.25,30.14,6,2,8,0.17
2014-2-9,69,52,37,53,46,36,97,82,51,30.22,30.08,15,1,17,0.00
2014-2-10,67,56,44,60,53,43,98,92,77,30.16,30.05,9,1,10,0.08
2014-2-11,53,49,47,52,48,46,98,96,93,30.15,30.00,14,4,15,0.71
2014-2-12,48,45,40,47,44,38,97,96,90,30.05,29.79,19,5,27,1.36
2014-2-13,56,44,36,40,37,33,95,79,48,30.05,29.89,18,4,20,0.00
2014-2-14,61,49,33,56,43,32,98,81,52,30.06,29.86,24,4,27,0.00
2014-2-15,60,48,37,46,38,29,92,71,33,30.19,29.91,16,4,16,0.00
2014-2-16,66,50,35,52,42,34,97,78,37,30.24,30.14,11,2,12,0.00
2014-2-17,69,57,43,63,55,42,98,92,79,30.21,30.14,17,2,17,0.00
2014-2-18,74,64,58,66,62,57,98,91,76,30.22,30.11,16,2,16,0.00
2014-2-19,71,66,63,66,64,61,98,94,84,30.15,30.05,14,4,15,0.00
2014-2-20,70,67,65,67,66,64,98,96,89,30.08,29.94,17,5,18,0.00
2014-2-21,68,58,48,67,43,30,98,62,27,30.12,29.86,30,6,30,2.34
2014-2-22,68,55,44,47,38,29,86,56,27,30.19,30.05,19,3,19,0.00
2014-2-23,67,60,51,65,58,45,98,93,71,30.08,29.94,8,1,14,1.84
2014-2-24,75,64,55,62,58,53,98,84,50,30.14,30.01,16,2,16,0.00
2014-2-25,74,61,50,60,55,50,97,83,56,30.11,29.92,11,1,11,0.00
2014-2-26,61,49,39,60,46,32,97,88,70,30.05,29.86,20,5,22,1.11
2014-2-27,54,41,31,33,25,16,90,57,25,30.11,30.00,16,4,16,0.00
2014-2-28,57,45,28,46,33,21,91,65,30,30.17,30.04,14,3,14,0.00
2014-3-1,66,57,46,57,51,43,97,82,70,30.24,30.11,13,3,13,0.00
2014-3-2,68,61,52,60,57,52,98,88,68,30.23,30.00,14,3,14,0.01
2014-3-3,68,52,35,65,49,31,98,88,74,30.19,29.94,19,6,24,0.01
2014-3-4,42,39,35,41,35,31,96,87,78,30.21,30.09,19,4,19,0.09
2014-3-5,63,51,42,53,47,41,96,86,68,30.15,30.00,14,3,14,0.09
2014-3-6,55,50,43,53,49,41,97,95,89,30.03,29.89,12,4,16,1.29
2014-3-7,58,46,41,48,42,39,96,86,66,30.11,29.97,12,3,17,0.00
2014-3-8,64,52,37,55,48,36,98,87,68,30.23,30.09,13,2,13,0.00
2014-3-9,74,60,49,58,54,48,98,82,49,30.26,30.13,9,1,10,0.01
2014-3-10,77,62,48,61,54,47,97,78,46,30.17,29.98,13,2,14,0.00
2014-3-11,70,62,54,64,60,53,97,92,83,30.01,29.74,15,2,15,0.10
2014-3-12,69,62,48,64,56,36,97,79,58,30.11,29.70,19,6,26,0.00
2014-3-13,64,50,32,40,34,28,92,58,31,30.30,30.12,24,4,24,0.00
2014-3-14,65,54,36,52,43,34,91,69,46,30.33,30.16,17,3,17,0.00
2014-3-15,64,59,52,62,56,50,95,92,85,30.16,29.93,15,2,15,0.11
2014-3-16,68,65,60,66,63,60,98,95,86,29.94,29.65,23,4,23,2.87
2014-3-17,61,55,48,60,53,45,98,94,88,29.84,29.65,21,3,21,0.18
2014-3-18,62,51,45,50,46,43,95,84,62,30.08,29.81,15,3,15,0.00
2014-3-19,68,57,44,56,51,43,97,81,59,30.18,30.05,15,2,15,0.00
2014-3-20,77,61,49,60,53,48,98,78,41,30.15,30.03,14,2,14,0.00
2014-3-21,75,60,43,59,49,39,96,73,30,30.16,30.04,11,2,16,0.00
2014-3-22,75,64,56,64,60,55,98,87,59,30.10,29.99,15,2,15,0.00
2014-3-23,74,64,55,68,60,48,98,87,65,30.16,29.98,24,4,24,0.12
2014-3-24,67,59,52,52,48,43,88,69,47,30.16,29.97,12,2,13,0.00
2014-3-25,63,55,45,51,34,21,88,50,22,30.28,29.99,28,6,28,0.00
2014-3-26,58,47,30,40,27,18,86,50,23,30.43,30.24,16,2,16,0.00
2014-3-27,68,58,44,61,51,35,94,77,62,30.28,30.09,22,5,22,0.01
2014-3-28,65,62,58,63,60,56,97,94,90,30.09,29.84,28,5,32,2.41
2014-3-29,73,64,55,63,55,44,98,76,44,30.18,29.87,23,4,23,1.02
2014-3-30,71,56,44,46,42,37,90,64,32,30.26,30.13,17,4,17,0.00
2014-3-31,69,56,38,50,44,37,96,69,33,30.21,30.12,16,3,16,0.00
2014-4-1,70,58,43,61,54,42,97,87,70,30.22,30.13,14,2,14,0.00
2014-4-2,75,66,57,67,63,56,98,90,73,30.18,30.10,16,3,16,0.01
2014-4-3,74,70,66,68,66,64,96,89,78,30.11,30.00,21,4,22,0.00
2014-4-4,77,69,63,70,66,62,96,90,74,30.07,29.93,17,3,17,0.27
2014-4-5,71,65,61,64,61,57,96,88,69,30.07,29.97,14,2,14,1.07
2014-4-6,71,66,58,70,65,57,98,95,87,30.00,29.80,17,3,17,0.32
2014-4-7,78,70,61,71,67,53,97,90,68,29.85,29.68,22,5,22,1.67
2014-4-8,66,57,48,53,49,45,95,75,47,29.96,29.82,20,3,20,0.00
2014-4-9,72,59,48,51,46,38,92,67,30,30.23,29.96,20,4,20,0.00
2014-4-10,72,60,45,58,51,44,97,76,42,30.31,30.22,14,2,14,0.00
2014-4-11,74,63,51,64,57,50,97,82,62,30.27,30.16,15,2,16,0.00
2014-4-12,77,65,54,63,57,53,97,80,51,30.22,30.10,16,2,16,0.00
2014-4-13,78,69,57,68,64,55,97,86,70,30.14,29.98,15,2,16,0.01
2014-4-14,76,70,65,70,67,64,97,91,80,29.98,29.73,23,3,23,3.75
2014-4-15,65,55,46,64,48,37,97,79,52,30.18,29.75,26,6,27,1.10
2014-4-16,68,52,38,50,40,33,93,68,39,30.27,30.13,14,2,17,0.00
2014-4-17,74,62,51,59,54,45,95,76,56,30.29,30.15,16,4,17,1.05
2014-4-18,61,59,56,59,57,54,97,94,88,30.18,29.99,24,6,24,3.52
2014-4-19,77,65,55,59,55,52,91,72,47,30.13,30.01,23,6,23,0.00
2014-4-20,64,59,53,57,54,51,95,83,73,30.22,30.10,16,3,16,0.00
2014-4-21,74,63,49,61,56,48,97,82,60,30.19,30.02,11,2,12,0.00
2014-4-22,77,66,54,68,61,53,98,86,65,30.02,29.86,13,2,15,0.00
2014-4-23,83,70,60,69,64,59,98,82,50,29.99,29.89,11,1,11,0.01
2014-4-24,77,70,61,69,66,60,98,87,65,30.02,29.92,14,2,14,0.00
2014-4-25,86,74,66,72,68,64,97,82,56,29.99,29.91,12,2,13,0.00
2014-4-26,82,73,67,73,69,66,97,89,71,30.05,29.93,14,2,14,0.00
2014-4-27,80,74,68,74,71,67,97,89,73,29.98,29.87,18,2,20,0.00
2014-4-28,82,77,73,76,74,71,95,91,81,29.90,29.73,19,4,21,0.00
2014-4-29,76,70,66,75,68,64,97,93,83,29.86,29.72,23,4,27,1.99
2014-4-30,73,68,65,70,66,61,98,94,84,30.03,29.76,19,3,27,0.79
2014-5-1,69,62,56,61,54,48,91,77,55,30.13,29.98,17,3,17,0.14
2014-5-2,74,64,58,60,57,52,96,79,50,30.05,29.92,11,1,11,0.02
2014-5-3,80,68,55,58,52,42,93,62,29,30.12,29.99,16,2,16,0.00
2014-5-4,87,71,56,64,57,48,98,68,28,30.16,30.05,12,1,12,0.00
2014-5-5,88,72,59,67,61,54,98,71,36,30.10,29.99,12,2,12,0.00
2014-5-6,82,70,58,66,61,54,97,75,39,30.06,29.98,14,1,14,0.00
2014-5-7,81,71,60,70,64,59,97,82,56,30.15,30.01,12,1,12,0.00
2014-5-8,83,73,61,72,68,60,97,84,64,30.17,30.08,14,2,14,0.00
2014-5-9,80,76,74,75,73,72,94,90,82,30.13,30.02,18,3,18,0.00
2014-5-10,80,76,73,75,73,70,96,91,83,30.09,30.01,16,2,16,0.25
2014-5-11,84,77,73,76,74,72,97,88,71,30.13,30.03,15,2,16,0.00
2014-5-12,84,77,71,76,73,70,96,87,73,30.17,30.05,13,2,13,0.00
2014-5-13,83,75,68,74,71,67,97,87,72,30.12,30.02,16,2,16,0.00
2014-5-14,78,70,65,75,69,64,98,96,89,30.06,29.91,17,2,20,2.70
2014-5-15,70,61,51,64,52,47,95,72,46,30.17,29.98,24,6,26,0.00
2014-5-16,78,64,47,60,53,46,97,72,43,30.21,30.09,16,2,17,0.00
2014-5-17,80,70,59,66,61,55,96,75,45,30.21,30.13,13,2,13,0.00
2014-5-18,82,70,58,67,61,54,97,76,40,30.20,30.14,14,1,14,0.00
2014-5-19,83,71,60,70,64,58,97,80,47,30.21,30.15,13,2,14,0.00
2014-5-20,83,73,61,73,67,60,97,84,55,30.24,30.16,12,2,13,0.00
2014-5-21,84,74,64,74,67,62,97,80,50,30.24,30.14,13,1,13,0.00
2014-5-22,89,75,61,74,66,60,97,77,40,30.21,30.08,11,1,11,0.00
2014-5-23,91,77,65,73,69,64,96,77,48,30.16,30.04,11,1,11,0.00
2014-5-24,90,78,66,74,70,65,97,79,53,30.14,30.04,9,1,10,0.00
2014-5-25,90,79,68,74,71,67,96,77,54,30.11,30.04,11,1,13,0.00
2014-5-26,86,78,67,77,73,65,97,85,70,30.18,30.09,11,2,12,0.00
2014-5-27,86,79,71,76,73,70,97,83,69,30.14,30.03,14,2,15,0.00
2014-5-28,85,78,70,76,73,68,95,84,72,30.04,29.94,18,3,20,1.05
2014-5-29,76,72,70,72,70,68,97,93,84,30.03,29.94,21,2,21,1.05
2014-5-30,83,74,69,75,70,66,95,88,71,30.05,29.96,16,2,18,0.28
2014-5-31,83,76,71,76,72,69,96,89,75,30.05,29.99,12,2,12,0.13
2014-6-1,86,77,70,76,72,68,96,85,67,30.10,30.02,17,2,17,0.04
2014-6-2,83,74,70,76,71,67,96,90,76,30.13,30.05,18,3,18,0.12
2014-6-3,82,76,70,76,72,69,96,89,76,30.10,30.01,11,2,11,0.01
2014-6-4,84,77,69,74,71,68,97,84,67,30.02,29.92,13,2,14,0.01
2014-6-5,86,78,68,77,72,67,97,82,64,29.98,29.91,15,2,15,0.00
2014-6-6,90,81,71,78,75,70,97,82,62,30.01,29.91,12,2,13,0.00
2014-6-7,91,82,73,81,76,71,96,83,68,30.02,29.91,15,2,15,0.00
2014-6-8,95,84,74,81,76,70,94,79,60,29.99,29.87,15,2,16,0.00
2014-6-9,89,82,73,79,76,70,94,81,64,29.97,29.88,14,3,17,0.00
2014-6-10,88,80,69,79,75,67,95,84,69,29.98,29.89,18,4,18,0.74
2014-6-11,85,76,69,77,70,67,96,84,62,29.96,29.83,18,3,19,0.34
2014-6-12,90,79,70,74,70,63,97,76,46,29.97,29.88,11,1,11,0.00
2014-6-13,81,74,69,73,70,67,97,88,69,30.04,29.90,14,1,22,0.33
2014-6-14,86,77,66,76,71,65,97,84,69,30.03,29.96,14,2,14,0.00
2014-6-15,88,79,68,77,73,67,97,83,67,30.14,30.00,13,2,13,0.00
2014-6-16,92,81,71,78,73,70,97,79,53,30.20,30.08,16,1,17,0.00
2014-6-17,94,81,71,78,73,70,97,79,48,30.19,30.07,10,1,10,0.00
2014-6-18,93,81,73,79,75,71,96,83,57,30.13,30.06,11,1,11,0.04
2014-6-19,92,79,72,78,74,69,97,85,53,30.15,30.07,13,1,17,0.53
2014-6-20,92,79,71,78,74,70,97,87,59,30.12,30.00,18,1,18,0.49
2014-6-21,94,80,71,80,74,70,98,85,58,30.04,29.91,16,1,17,0.63
2014-6-22,92,80,71,80,74,69,97,84,59,30.00,29.86,23,2,23,0.35
2014-6-23,86,76,71,78,73,70,97,91,70,30.08,29.91,20,1,20,0.30
2014-6-24,90,81,73,80,75,70,96,83,60,30.11,30.03,15,1,15,0.00
2014-6-25,90,80,71,79,74,69,96,82,58,30.15,30.03,18,2,21,0.21
2014-6-26,89,79,73,79,75,71,97,87,67,30.14,30.01,18,1,18,0.44
2014-6-27,90,85,78,79,77,73,88,77,66,30.16,30.02,12,2,12,0.06
2014-6-28,90,82,73,81,76,71,95,83,69,30.18,30.05,12,2,13,0.00
2014-6-29,92,83,74,80,77,73,97,82,63,30.20,30.09,13,2,13,0.00
2014-6-30,95,84,75,81,77,74,97,81,55,30.11,29.98,11,1,11,0.00
2014-7-1,96,85,76,80,77,74,97,80,51,30.03,29.92,11,1,11,0.00
2014-7-2,95,86,79,80,77,72,92,76,52,30.01,29.93,12,2,12,0.00
2014-7-3,90,80,71,76,72,68,91,77,60,30.09,29.97,12,2,13,0.00
2014-7-4,89,78,70,69,65,61,92,66,41,30.17,30.08,12,2,12,0.00
2014-7-5,91,78,65,71,67,62,93,69,44,30.17,30.07,12,1,12,0.00
2014-7-6,90,79,68,76,72,66,95,78,59,30.08,30.00,10,1,10,0.00
2014-7-7,94,81,69,76,70,63,95,73,38,30.09,30.00,12,1,12,0.00
2014-7-8,91,81,70,76,72,68,96,77,55,30.15,30.04,13,2,13,0.00
2014-7-9,91,78,73,79,74,72,96,87,61,30.11,30.03,17,1,17,0.10
2014-7-10,91,77,72,77,73,70,97,88,58,30.12,30.05,17,1,17,0.77
2014-7-11,92,79,71,79,73,68,98,86,55,30.16,30.07,16,1,16,0.42
2014-7-12,89,79,70,81,74,69,98,86,69,30.15,30.07,11,1,13,0.00
2014-7-13,89,80,72,78,74,70,97,82,63,30.14,30.03,9,2,11,0.00
2014-7-14,90,82,73,79,76,72,96,81,63,30.09,29.97,14,2,14,0.00
2014-7-15,85,79,74,80,75,72,96,90,78,30.01,29.88,15,1,15,0.05
2014-7-16,88,79,72,76,70,63,97,77,48,29.96,29.89,13,2,14,0.06
2014-7-17,89,77,64,72,66,60,91,70,43,30.04,29.96,11,1,11,0.00
2014-7-18,85,76,68,79,72,66,97,88,75,30.08,29.99,21,1,25,0.98
2014-7-19,85,79,74,78,75,73,97,90,76,30.07,29.98,13,1,14,2.69
2014-7-20,88,80,75,79,77,73,96,89,71,30.06,29.97,17,1,17,0.75
2014-7-21,88,80,74,79,76,72,97,89,64,30.05,29.97,9,1,10,0.48
2014-7-22,88,80,73,79,75,71,97,86,68,30.07,29.99,13,1,14,0.04
2014-7-23,88,79,72,78,74,71,97,86,65,30.09,29.98,11,1,11,0.02
2014-7-24,89,80,71,78,74,70,97,84,64,30.04,29.94,11,1,11,0.01
2014-7-25,92,81,74,81,76,72,97,86,64,30.04,29.95,15,1,15,0.11
2014-7-26,93,84,75,82,78,74,97,85,67,30.08,30.00,13,1,16,0.02
2014-7-27,95,84,76,81,78,74,97,82,54,30.10,30.00,12,2,12,0.01
2014-7-28,94,83,74,81,77,72,96,84,60,30.05,29.94,26,2,26,0.00
2014-7-29,88,79,71,75,69,65,96,73,48,30.05,29.95,14,2,14,0.01
2014-7-30,87,76,66,69,63,58,88,65,39,30.06,29.98,11,2,11,0.00
2014-7-31,89,76,60,72,64,59,96,71,41,30.06,29.97,11,1,11,0.00
2014-8-1,88,78,71,74,70,66,92,75,52,30.03,29.96,7,1,8,0.00
2014-8-2,92,81,72,78,74,70,96,80,56,30.03,29.94,6,1,9,0.00
2014-8-3,89,80,75,79,75,72,94,85,64,30.03,29.95,13,1,13,0.09
2014-8-4,90,80,72,80,75,70,96,86,65,30.04,29.94,12,1,13,0.11
2014-8-5,92,82,72,79,75,71,97,81,59,30.09,29.99,11,1,12,0.00
2014-8-6,94,82,73,81,75,72,97,81,57,30.08,29.98,11,1,12,0.00
2014-8-7,93,82,75,80,76,71,96,83,62,30.04,29.93,12,1,12,0.00
2014-8-8,91,81,75,81,76,72,97,86,67,30.06,29.95,12,1,12,0.23
2014-8-9,91,80,74,80,76,72,97,87,62,30.06,29.96,18,1,19,0.45
2014-8-10,92,81,73,80,76,72,97,84,61,30.08,29.95,10,1,10,0.01
2014-8-11,92,82,73,78,74,71,95,79,60,30.03,29.92,12,2,12,0.00
2014-8-12,90,79,72,80,74,71,96,86,66,29.97,29.89,10,1,21,0.05
2014-8-13,92,81,72,79,74,71,97,80,55,30.00,29.93,12,2,12,0.01
2014-8-14,92,81,70,76,70,64,90,71,52,30.04,29.94,9,1,9,0.00
2014-8-15,92,79,68,75,70,66,94,74,46,30.05,29.95,11,2,11,0.00
2014-8-16,92,80,68,80,73,66,96,80,58,30.08,29.99,13,1,14,0.09
2014-8-17,92,80,75,80,75,72,96,87,59,30.09,30.02,15,1,15,0.21
2014-8-18,90,81,74,81,77,72,97,86,69,30.05,29.95,6,1,13,0.10
2014-8-19,92,83,71,80,76,68,94,81,57,30.07,29.93,27,2,27,0.00
2014-8-20,94,82,70,82,75,68,96,82,57,30.12,29.96,10,1,12,0.00
2014-8-21,95,84,75,81,77,74,97,80,54,30.16,30.06,9,1,10,0.00
2014-8-22,97,85,76,80,77,73,95,77,49,30.12,29.99,11,2,11,0.00
2014-8-23,97,87,77,78,76,72,95,74,48,30.03,29.89,11,1,12,0.00
2014-8-24,97,86,76,80,76,73,93,74,49,29.92,29.81,18,2,18,0.00
2014-8-25,90,83,76,75,72,68,88,73,54,29.97,29.89,19,3,19,0.00
2014-8-26,84,44,0,72,69,64,79,42,67,30.03,29.95,14,2,15,0.00
2014-8-27,0,0,0,71,71,71,0,0,100,30.06,29.98,13,2,13,0.00
2014-8-28,0,0,0,71,71,71,0,0,100,30.03,29.94,11,1,11,0.00
2014-8-29,0,0,0,71,71,71,0,0,100,30.07,29.97,10,2,14,0.02
2014-8-30,0,0,0,71,71,71,0,0,100,30.11,30.05,16,2,18,0.00
2014-8-31,0,0,0,71,71,71,0,0,100,30.13,30.07,14,2,15,0.00
2014-9-1,0,0,0,71,71,71,0,0,100,30.13,30.03,13,2,13,0.00
2014-9-2,0,0,0,71,71,71,0,0,100,30.11,29.99,12,2,12,0.00
2014-9-3,0,0,0,71,71,71,0,0,100,30.07,29.99,11,1,19,0.12
2014-9-4,0,0,0,71,71,71,0,0,100,30.12,30.02,6,0,8,0.13
2014-9-5,0,0,0,71,71,71,0,0,100,30.16,30.02,9,1,10,0.13
2014-9-6,0,0,0,71,71,71,0,0,100,30.07,29.94,10,1,13,0.13
2014-9-7,0,0,0,71,71,71,0,0,100,30.01,29.92,15,1,15,0.40
2014-9-8,0,0,0,71,71,71,0,0,100,30.03,29.95,7,1,11,0.73
2014-9-9,0,0,0,71,71,71,0,0,100,30.05,30.01,6,0,6,0.93
2014-9-12,0,0,0,71,71,71,0,0,100,30.05,29.97,10,1,11,1.07
2014-9-13,0,0,0,71,71,71,0,0,100,30.09,29.97,15,1,22,1.78
2014-9-14,0,0,0,71,71,71,0,0,100,30.13,30.05,19,2,20,2.12
2014-9-15,0,0,0,71,71,71,0,0,100,30.14,30.06,8,1,8,2.77
2014-9-16,90,50,0,80,74,71,96,59,68,30.09,29.97,12,1,14,4.15
2014-9-17,82,79,74,73,73,73,96,96,96,29.98,29.88,9,1,16,4.15
2014-9-18,82,82,82,73,73,73,96,96,96,29.97,29.89,8,1,10,4.15
2014-9-19,82,82,82,73,73,73,96,96,96,30.02,29.91,9,1,11,4.29
2014-9-20,82,81,0,73,73,72,96,95,96,30.05,29.96,15,4,16,4.29
2014-9-21,0,0,0,72,72,72,0,0,100,30.06,29.97,10,2,11,0.00
2014-9-22,0,0,0,72,72,72,0,0,100,30.06,29.96,17,2,18,0.00
2014-9-23,74,49,0,72,68,56,87,55,79,30.13,30.04,16,3,16,0.00
2014-9-24,74,74,74,67,67,67,80,80,80,30.20,30.10,16,3,17,0.00
2014-9-25,77,72,62,67,66,60,93,80,69,30.21,30.09,13,2,14,0.00
2014-9-26,81,70,61,67,64,59,95,82,58,30.12,30.02,14,2,15,0.00
2014-9-27,79,74,67,72,69,63,93,85,77,30.07,30.00,16,3,16,0.00
2014-9-28,78,74,72,75,72,69,95,92,87,30.04,29.94,10,2,11,0.23
2014-9-29,83,76,73,76,73,70,96,90,77,29.94,29.83,11,2,12,0.20
2014-9-30,79,73,68,72,70,66,96,88,76,29.94,29.87,10,1,11,0.00
2014-10-1,86,77,65,74,70,64,97,79,64,30.00,29.90,8,1,9,0.01
2014-10-2,85,85,85,73,73,73,67,67,67,30.06,29.97,11,1,12,0.06
2014-10-3,85,85,85,73,73,73,67,67,67,30.02,29.90,23,2,23,1.12
2014-10-4,85,73,48,73,59,46,93,63,45,30.07,29.99,19,3,20,0.01
2014-10-5,70,61,44,52,47,42,95,63,44,30.12,30.02,8,1,9,0.00
2014-10-6,78,74,69,63,56,48,60,54,46,30.08,29.99,12,1,12,0.00
2014-10-7,78,78,78,63,63,63,60,60,60,30.10,30.01,13,1,13,0.00
2014-10-8,78,78,78,63,63,63,60,60,60,30.16,30.07,12,1,12,0.00
2014-10-9,78,78,78,63,63,63,60,60,60,30.14,30.03,12,1,13,0.01
2014-10-10,78,78,78,63,63,63,60,60,60,30.09,30.01,12,1,12,0.00
2014-10-11,78,78,78,63,63,63,60,60,60,30.09,29.99,12,1,12,0.00
2014-10-12,78,78,78,63,63,63,60,60,60,30.06,29.99,10,1,16,0.00
2014-10-13,78,78,78,63,63,63,60,60,60,30.02,29.83,36,3,36,1.32
2014-10-14,78,78,78,63,63,63,60,60,60,30.00,29.76,18,3,21,1.71
2014-10-15,78,78,78,63,63,63,60,60,60,30.03,29.93,16,1,16,0.01
2014-10-16,78,78,78,63,63,63,60,60,60,30.03,29.94,13,1,13,0.00
2014-10-17,78,78,78,63,63,63,60,60,60,30.05,29.95,10,1,10,0.01
2014-10-18,78,78,78,63,63,63,60,60,60,30.03,29.94,15,1,15,0.00
2014-10-19,78,78,78,63,63,63,60,60,60,30.14,30.03,14,1,14,0.00
2014-10-20,78,71,49,63,59,48,95,67,60,30.09,29.98,6,1,8,0.00
2014-10-21,70,65,53,59,56,52,95,73,66,30.07,29.96,11,1,13,0.01
2014-10-22,63,63,63,55,55,55,75,75,75,30.11,30.01,14,3,15,0.00
2014-10-23,63,63,63,55,55,55,75,75,75,30.13,30.03,10,2,11,0.00
2014-10-24,68,40,0,55,53,52,65,34,57,30.10,30.00,12,4,12,0.00
2014-10-25,77,67,44,56,52,42,95,62,39,30.13,30.03,17,5,17,0.00
2014-10-26,83,71,52,69,64,50,96,80,60,30.08,29.98,7,1,8,0.00
2014-10-27,61,57,56,60,56,55,96,96,95,30.10,30.03,10,1,11,0.00
2014-10-28,56,56,56,55,55,55,96,96,96,30.16,30.08,9,1,10,0.04
2014-10-29,56,56,56,55,55,55,96,96,96,30.11,29.99,10,1,10,0.09
2014-10-30,56,55,47,55,53,44,96,94,72,30.10,29.99,20,4,20,0.00
2014-10-31,74,58,40,53,46,39,95,69,41,30.10,29.92,21,2,21,0.00
2014-11-1,58,48,40,44,31,25,67,52,30,30.26,30.10,25,7,25,0.00
2014-11-2,66,48,38,40,36,28,87,68,24,30.37,30.31,10,0,11,0.00
2014-11-3,67,52,35,50,41,33,93,71,33,30.45,30.34,10,2,12,0.00
2014-11-4,75,62,45,64,54,37,92,76,60,30.34,30.23,11,2,11,0.00
2014-11-5,78,68,58,69,64,57,95,86,63,30.25,30.14,16,1,16,0.00
2014-11-6,79,67,58,70,64,46,97,89,64,30.18,30.04,17,1,19,0.21
2014-11-7,63,53,46,46,43,40,86,70,46,30.17,30.02,14,4,15,0.00
2014-11-8,61,50,43,49,44,40,95,80,57,30.08,29.95,8,1,8,0.00
2014-11-9,71,54,43,53,46,42,95,78,44,30.06,29.96,13,1,13,0.00
2014-11-10,71,54,39,58,48,38,97,83,52,30.09,29.98,10,1,10,0.00
2014-11-11,76,58,45,63,54,44,97,88,62,30.09,29.98,8,1,8,0.01
2014-11-12,71,61,51,65,58,48,97,89,81,30.15,30.02,16,2,17,0.00
2014-11-13,51,44,38,48,39,30,92,85,69,30.26,30.11,17,6,20,0.14
2014-11-14,50,40,32,30,24,20,75,55,32,30.33,30.22,17,5,17,0.00
2014-11-15,58,43,29,42,33,23,91,69,43,30.37,30.23,8,1,9,0.00
2014-11-16,71,61,42,67,56,40,95,84,77,30.23,29.87,14,2,17,0.48
2014-11-17,72,58,45,69,54,37,96,87,69,30.07,29.78,26,6,27,0.54